Farley, Iowa
Current Conditions -  °F | °C
As of 3:53 PM on Wednesday 22 Oct 2014 (Local Time) from KDBQ Reporting Station
Clear Clear  
Wind Chill: 57°   Ceiling: Unl
Heat Index: 57°   Visibility: 10mi
Dew Point: 37°   Wind: 12mph
Humidity: 47%   Direction: 140°SE
Pressure: 30.24"   Gusts: NA
Location:  42.44°N, 91.01°W
Report Text: KDBQ 222053Z 14010KT 10SM CLR 14/03 A3024 RMK AO2 SLP246 T01390028 56020
Loading
Personal Weather Stations






























Interactive Weather Map
Tropical Storm Tracking
New forecast layout! Learn more

10-Day Weather Forecast

Advertisements
Track Severe Weather on mobile